Molengracht — PCJG — position and weather

sailwx.info

Track history (hours):
 
Tides and Currents Weather Stations Pressure Air Temp Water Temp Dewpoint Dewpoint Depression Visibility Wind Speed Wind Dir Waves Ship Positions

Molengracht

Last reported at 2015-Aug-14 09:18 UTC. Time now 2015-Aug-28 05:19 UTC.
Position N 34°43' E 121°59'.
Warning: this ship's position is 13 days out of date.

Length 143 m; draft 6.4 m.

Type: Cargo ship. MMSI: 246770000.

Date/timePositionNaut miles runAvg speedWind from/ knotsBaromVisibWave heightAir tempDewpointWater temp
2015-Aug-14 09:18N 34°43' E 121°59'1415.3
2015-Aug-14 08:22N 34°31' E 122°09'1315.8
2015-Aug-14 07:32N 34°20' E 122°18'1615.9
2015-Aug-14 06:31N 34°07' E 122°30'7915.7
2015-Aug-14 01:30N 32°51' E 122°53'1312.9
2015-Aug-14 00:29N 32°38' E 122°53'1111.8
2015-Aug-13 23:33N 32°27' E 122°53'1515.0
2015-Aug-13 22:33N 32°12' E 122°53'1515.0
2015-Aug-13 21:33N 31°57' E 122°53'1515.4
2015-Aug-13 20:34N 31°42' E 122°53'1515.0
2015-Aug-13 19:33N 31°27' E 122°53'1515.5
2015-Aug-13 18:34N 31°11' E 122°53'1514.6
2015-Aug-13 17:30N 30°58' E 122°44'1616.5
2015-Aug-13 16:33N 31°01' E 122°26'1414.3
2015-Aug-13 15:33N 31°03' E 122°09'1313.2
2015-Aug-13 14:33N 31°08' E 121°55'1212.2
2015-Aug-13 13:33N 31°16' E 121°45'1111.1
2015-Aug-13 12:33N 31°23' E 121°35'9 8.9
2015-Aug-13 11:33N 31°29' E 121°27'1311.3
2015-Aug-13 10:26N 31°37' E 121°16'1214.1
2015-Aug-13 09:33N 31°45' E 121°04'6 0.2
2015-Aug-12 03:30N 31°46' E 120°57'0 0.0
2015-Aug-12 02:18N 31°46' E 120°57'0 0.1
2015-Aug-12 00:32N 31°46' E 120°57'9 8.8
2015-Aug-11 23:33N 31°44' E 121°07'1 1.4
2015-Aug-11 22:32N 31°43' E 121°08'0 0.0
2015-Aug-11 21:32N 31°43' E 121°08'0 0.0
2015-Aug-11 20:29N 31°43' E 121°08'0 0.0
2015-Aug-11 19:29N 31°43' E 121°08'0 0.0
2015-Aug-11 18:29N 31°43' E 121°08'0 0.0
2015-Aug-11 17:32N 31°43' E 121°08'0 0.1
2015-Aug-11 16:29N 31°43' E 121°08'0 0.1
2015-Aug-11 15:26N 31°43' E 121°08'0 0.1
2015-Aug-11 13:17N 31°43' E 121°08'0 0.0
2015-Aug-11 12:32N 31°43' E 121°08'0 0.0
2015-Aug-11 11:30N 31°43' E 121°08'0 0.0
2015-Aug-11 10:32N 31°43' E 121°08'0 0.0
2015-Aug-11 09:26N 31°43' E 121°08'0 0.0
2015-Aug-11 08:32N 31°43' E 121°08'0 0.0
2015-Aug-11 07:32N 31°43' E 121°08'0 0.0
2015-Aug-11 06:29N 31°43' E 121°08'0 0.0
2015-Aug-11 05:23N 31°43' E 121°08'0 0.0
2015-Aug-11 04:32N 31°43' E 121°08'0 0.0
2015-Aug-11 03:23N 31°43' E 121°08'0 0.0
2015-Aug-11 02:32N 31°43' E 121°08'0 0.1
2015-Aug-11 01:08N 31°43' E 121°08'0 0.1
2015-Aug-11 00:29N 31°43' E 121°08'0 0.0
2015-Aug-10 23:29N 31°43' E 121°08'0 0.0
2015-Aug-10 22:29N 31°43' E 121°08'0 0.0
2015-Aug-10 21:32N 31°43' E 121°08'0 0.0
2015-Aug-10 20:32N 31°43' E 121°08'0 0.0
2015-Aug-10 19:29N 31°43' E 121°08'0 0.1
2015-Aug-10 18:29N 31°43' E 121°08'0 0.0
2015-Aug-10 17:29N 31°43' E 121°08'0 0.2
2015-Aug-10 16:31N 31°43' E 121°08'0 0.0
2015-Aug-10 15:29N 31°43' E 121°08'0 0.0
2015-Aug-10 14:31N 31°43' E 121°08'0 0.0
2015-Aug-10 13:26N 31°43' E 121°08'0 0.0
2015-Aug-10 12:31N 31°43' E 121°08'0 0.0
2015-Aug-10 11:31N 31°43' E 121°08'0 0.2
2015-Aug-10 10:29N 31°43' E 121°08'0 0.0
2015-Aug-10 09:13N 31°43' E 121°08'0 0.0
2015-Aug-10 08:29N 31°43' E 121°08'0 0.1
2015-Aug-10 07:29N 31°43' E 121°08'0 0.1
2015-Aug-10 06:32N 31°43' E 121°08'0 0.1
2015-Aug-10 05:29N 31°43' E 121°08'0 0.0
2015-Aug-10 04:28N 31°43' E 121°08'0 0.0
2015-Aug-10 03:20N 31°43' E 121°08'0 0.0
2015-Aug-10 02:28N 31°43' E 121°08'0 0.1
2015-Aug-10 01:31N 31°43' E 121°08'0 0.0
2015-Aug-10 00:31N 31°43' E 121°08'0 0.1
2015-Aug-09 23:13N 31°43' E 121°08'0 0.1
2015-Aug-09 22:28N 31°43' E 121°08'0 0.0
2015-Aug-09 21:28N 31°43' E 121°08'0 0.0
2015-Aug-09 20:25N 31°43' E 121°08'0 0.0
2015-Aug-09 19:22N 31°43' E 121°08'0 0.1
2015-Aug-09 18:28N 31°43' E 121°08'0 0.1
2015-Aug-09 17:32N 31°43' E 121°08'0 0.0
2015-Aug-09 15:29N 31°43' E 121°08'9 9.3
2015-Aug-09 14:33N 31°37' E 121°16'1312.6
2015-Aug-09 13:34N 31°29' E 121°27'9 9.3
2015-Aug-09 12:33N 31°23' E 121°35'8 8.3
2015-Aug-09 11:33N 31°18' E 121°43'1212.4
2015-Aug-09 10:34N 31°09' E 121°53'1313.2
2015-Aug-09 09:33N 31°04' E 122°07'1010.2
2015-Aug-09 08:33N 31°02' E 122°19'26210.1
2015-Aug-08 06:30N 34°54' E 119°53'16 0.3
2015-Aug-06 03:17N 34°56' E 120°12'14613.4
2015-Aug-05 16:22N 33°32' E 122°36'4214.3
2015-Aug-05 13:26N 32°51' E 122°49'1914.1
2015-Aug-05 12:06N 32°33' E 122°54'813.9
2015-Aug-05 11:32N 32°25' E 122°55'1513.9
2015-Aug-05 10:28N 32°11' E 123°01'1414.9
2015-Aug-05 09:33N 31°58' E 123°04'1615.3
2015-Aug-05 08:29N 31°41' E 123°07'1516.0
2015-Aug-05 07:33N 31°27' E 123°11'  
Track history (hours):
 
Tides and Currents Weather Stations Pressure Air Temp Water Temp Dewpoint Dewpoint Depression Visibility Wind Speed Wind Dir Waves Ship Positions

Molengracht

Last reported at 2015-Aug-14 09:18 UTC. Time now 2015-Aug-28 05:19 UTC.
Position N 34°43' E 121°59'.
Warning: this ship's position is 13 days out of date.

Length 143 m; draft 6.4 m.

Type: Cargo ship. MMSI: 246770000.

Date/timePositionNaut miles runAvg speedWind from/ knotsBaromVisibWave heightAir tempDewpointWater temp
2015-Aug-14 09:18N 34°43' E 121°59'1415.3
2015-Aug-14 08:22N 34°31' E 122°09'1315.8
2015-Aug-14 07:32N 34°20' E 122°18'1615.9
2015-Aug-14 06:31N 34°07' E 122°30'7915.7
2015-Aug-14 01:30N 32°51' E 122°53'1312.9
2015-Aug-14 00:29N 32°38' E 122°53'1111.8
2015-Aug-13 23:33N 32°27' E 122°53'1515.0
2015-Aug-13 22:33N 32°12' E 122°53'1515.0
2015-Aug-13 21:33N 31°57' E 122°53'1515.4
2015-Aug-13 20:34N 31°42' E 122°53'1515.0
2015-Aug-13 19:33N 31°27' E 122°53'1515.5
2015-Aug-13 18:34N 31°11' E 122°53'1514.6
2015-Aug-13 17:30N 30°58' E 122°44'1616.5
2015-Aug-13 16:33N 31°01' E 122°26'1414.3
2015-Aug-13 15:33N 31°03' E 122°09'1313.2
2015-Aug-13 14:33N 31°08' E 121°55'1212.2
2015-Aug-13 13:33N 31°16' E 121°45'1111.1
2015-Aug-13 12:33N 31°23' E 121°35'9 8.9
2015-Aug-13 11:33N 31°29' E 121°27'1311.3
2015-Aug-13 10:26N 31°37' E 121°16'1214.1
2015-Aug-13 09:33N 31°45' E 121°04'6 0.2
2015-Aug-12 03:30N 31°46' E 120°57'0 0.0
2015-Aug-12 02:18N 31°46' E 120°57'0 0.1
2015-Aug-12 00:32N 31°46' E 120°57'9 8.8
2015-Aug-11 23:33N 31°44' E 121°07'1 1.4
2015-Aug-11 22:32N 31°43' E 121°08'0 0.0
2015-Aug-11 21:32N 31°43' E 121°08'0 0.0
2015-Aug-11 20:29N 31°43' E 121°08'0 0.0
2015-Aug-11 19:29N 31°43' E 121°08'0 0.0
2015-Aug-11 18:29N 31°43' E 121°08'0 0.0
2015-Aug-11 17:32N 31°43' E 121°08'0 0.1
2015-Aug-11 16:29N 31°43' E 121°08'0 0.1
2015-Aug-11 15:26N 31°43' E 121°08'0 0.1
2015-Aug-11 13:17N 31°43' E 121°08'0 0.0
2015-Aug-11 12:32N 31°43' E 121°08'0 0.0
2015-Aug-11 11:30N 31°43' E 121°08'0 0.0
2015-Aug-11 10:32N 31°43' E 121°08'0 0.0
2015-Aug-11 09:26N 31°43' E 121°08'0 0.0
2015-Aug-11 08:32N 31°43' E 121°08'0 0.0
2015-Aug-11 07:32N 31°43' E 121°08'0 0.0
2015-Aug-11 06:29N 31°43' E 121°08'0 0.0
2015-Aug-11 05:23N 31°43' E 121°08'0 0.0
2015-Aug-11 04:32N 31°43' E 121°08'0 0.0
2015-Aug-11 03:23N 31°43' E 121°08'0 0.0
2015-Aug-11 02:32N 31°43' E 121°08'0 0.1
2015-Aug-11 01:08N 31°43' E 121°08'0 0.1
2015-Aug-11 00:29N 31°43' E 121°08'0 0.0
2015-Aug-10 23:29N 31°43' E 121°08'0 0.0
2015-Aug-10 22:29N 31°43' E 121°08'0 0.0
2015-Aug-10 21:32N 31°43' E 121°08'0 0.0
2015-Aug-10 20:32N 31°43' E 121°08'0 0.0
2015-Aug-10 19:29N 31°43' E 121°08'0 0.1
2015-Aug-10 18:29N 31°43' E 121°08'0 0.0
2015-Aug-10 17:29N 31°43' E 121°08'0 0.2
2015-Aug-10 16:31N 31°43' E 121°08'0 0.0
2015-Aug-10 15:29N 31°43' E 121°08'0 0.0
2015-Aug-10 14:31N 31°43' E 121°08'0 0.0
2015-Aug-10 13:26N 31°43' E 121°08'0 0.0
2015-Aug-10 12:31N 31°43' E 121°08'0 0.0
2015-Aug-10 11:31N 31°43' E 121°08'0 0.2
2015-Aug-10 10:29N 31°43' E 121°08'0 0.0
2015-Aug-10 09:13N 31°43' E 121°08'0 0.0
2015-Aug-10 08:29N 31°43' E 121°08'0 0.1
2015-Aug-10 07:29N 31°43' E 121°08'0 0.1
2015-Aug-10 06:32N 31°43' E 121°08'0 0.1
2015-Aug-10 05:29N 31°43' E 121°08'0 0.0
2015-Aug-10 04:28N 31°43' E 121°08'0 0.0
2015-Aug-10 03:20N 31°43' E 121°08'0 0.0
2015-Aug-10 02:28N 31°43' E 121°08'0 0.1
2015-Aug-10 01:31N 31°43' E 121°08'0 0.0
2015-Aug-10 00:31N 31°43' E 121°08'0 0.1
2015-Aug-09 23:13N 31°43' E 121°08'0 0.1
2015-Aug-09 22:28N 31°43' E 121°08'0 0.0
2015-Aug-09 21:28N 31°43' E 121°08'0 0.0
2015-Aug-09 20:25N 31°43' E 121°08'0 0.0
2015-Aug-09 19:22N 31°43' E 121°08'0 0.1
2015-Aug-09 18:28N 31°43' E 121°08'0 0.1
2015-Aug-09 17:32N 31°43' E 121°08'0 0.0
2015-Aug-09 15:29N 31°43' E 121°08'9 9.3
2015-Aug-09 14:33N 31°37' E 121°16'1312.6
2015-Aug-09 13:34N 31°29' E 121°27'9 9.3
2015-Aug-09 12:33N 31°23' E 121°35'8 8.3
2015-Aug-09 11:33N 31°18' E 121°43'1212.4
2015-Aug-09 10:34N 31°09' E 121°53'1313.2
2015-Aug-09 09:33N 31°04' E 122°07'1010.2
2015-Aug-09 08:33N 31°02' E 122°19'26210.1
2015-Aug-08 06:30N 34°54' E 119°53'16 0.3
2015-Aug-06 03:17N 34°56' E 120°12'14613.4
2015-Aug-05 16:22N 33°32' E 122°36'4214.3
2015-Aug-05 13:26N 32°51' E 122°49'1914.1
2015-Aug-05 12:06N 32°33' E 122°54'813.9
2015-Aug-05 11:32N 32°25' E 122°55'1513.9
2015-Aug-05 10:28N 32°11' E 123°01'1414.9
2015-Aug-05 09:33N 31°58' E 123°04'1615.3
2015-Aug-05 08:29N 31°41' E 123°07'1516.0
2015-Aug-05 07:33N 31°27' E 123°11'  

Dump ship's entire track history